createdAt,value
2022-12-17T00:00:36.982Z,2.00
2022-12-17T00:03:23.024Z,1.73
2022-12-17T00:06:11.063Z,1.80
2022-12-17T00:08:56.603Z,2.10
2022-12-17T00:11:42.212Z,2.20
2022-12-17T00:14:29.491Z,2.70
2022-12-17T00:17:26.748Z,1.90
2022-12-17T00:20:12.501Z,2.25
2022-12-17T00:22:58.396Z,2.00
2022-12-17T00:25:44.678Z,2.10
2022-12-17T00:28:31.572Z,2.00
2022-12-17T00:31:18.657Z,1.83
2022-12-17T00:34:01.841Z,2.00
2022-12-17T00:36:47.513Z,2.30
2022-12-17T00:39:32.946Z,2.38
2022-12-17T00:42:18.432Z,1.88
2022-12-17T00:45:04.327Z,2.25
2022-12-17T00:47:51.526Z,1.92
2022-12-17T00:50:37.651Z,2.22
2022-12-17T00:53:23.175Z,2.00
2022-12-17T00:56:08.675Z,2.15
2022-12-17T00:58:55.122Z,2.40
2022-12-17T01:01:41.028Z,2.28
2022-12-17T01:04:28.385Z,2.00
2022-12-17T01:07:13.889Z,2.00
2022-12-17T01:10:01.787Z,2.45
2022-12-17T01:12:47.578Z,1.90
2022-12-17T01:15:33.994Z,2.17
2022-12-17T01:18:19.661Z,1.90
2022-12-17T01:21:06.777Z,2.30
2022-12-17T01:23:52.276Z,2.05
2022-12-17T01:26:37.903Z,2.15
2022-12-17T01:29:23.472Z,1.85
2022-12-17T01:32:09.547Z,2.17
2022-12-17T01:34:55.892Z,2.25
2022-12-17T01:37:42.966Z,2.10
2022-12-17T01:40:29.584Z,1.83
2022-12-17T01:43:17.843Z,2.42
2022-12-17T01:46:06.422Z,2.05
2022-12-17T01:48:58.238Z,2.08
2022-12-17T01:51:46.646Z,2.00
2022-12-17T01:54:34.835Z,2.20
2022-12-17T01:57:24.648Z,2.20
2022-12-17T02:00:17.189Z,2.10
2022-12-17T02:03:03.166Z,1.90
2022-12-17T02:05:56.490Z,2.00
2022-12-17T02:08:49.340Z,2.28
2022-12-17T02:11:50.105Z,2.00
2022-12-17T02:14:41.426Z,2.03
2022-12-17T02:17:43.486Z,1.92
2022-12-17T02:20:39.915Z,1.88
2022-12-17T02:23:36.633Z,1.60
2022-12-17T02:26:29.987Z,2.00
2022-12-17T02:29:20.261Z,2.08
2022-12-17T02:32:07.317Z,2.30
2022-12-17T02:35:02.283Z,1.83
2022-12-17T02:37:48.286Z,1.92
2022-12-17T02:40:34.865Z,2.20
2022-12-17T02:43:21.327Z,1.77
2022-12-17T02:46:12.058Z,2.08
2022-12-17T02:48:58.253Z,2.00
2022-12-17T02:51:45.583Z,2.20
2022-12-17T02:54:31.241Z,1.80
2022-12-17T02:57:17.288Z,2.40
2022-12-17T03:00:03.475Z,2.08
2022-12-17T03:02:51.723Z,2.15
2022-12-17T03:05:45.815Z,1.70
2022-12-17T03:08:32.306Z,1.83
2022-12-17T03:11:18.268Z,1.70
2022-12-17T03:14:03.900Z,2.00
2022-12-17T03:16:49.886Z,2.00
2022-12-17T03:19:37.307Z,2.33
2022-12-17T03:26:12.134Z,2.58
2022-12-17T03:28:57.594Z,1.77
2022-12-17T03:31:43.157Z,2.05
2022-12-17T03:34:28.654Z,2.05
2022-12-17T03:37:30.171Z,1.80
2022-12-17T03:40:16.150Z,1.80
2022-12-17T03:43:02.089Z,2.00
2022-12-17T03:45:48.109Z,2.03
2022-12-17T03:48:34.200Z,2.13
2022-12-17T03:51:20.741Z,1.98
2022-12-17T03:54:08.158Z,2.17
2022-12-17T03:56:53.731Z,2.05
2022-12-17T03:59:39.249Z,2.20
2022-12-17T04:02:25.469Z,2.03
2022-12-17T04:05:16.549Z,2.20
2022-12-17T04:08:05.391Z,1.98
2022-12-17T04:10:52.427Z,2.10
2022-12-17T04:13:41.357Z,1.88
2022-12-17T04:16:33.381Z,1.90
2022-12-17T04:19:18.991Z,1.80
2022-12-17T04:22:04.721Z,2.10
2022-12-17T04:24:50.288Z,1.95
2022-12-17T04:27:37.499Z,1.60
2022-12-17T04:30:23.899Z,1.98
2022-12-17T04:33:09.571Z,1.48
2022-12-17T04:35:55.057Z,1.70
2022-12-17T04:38:40.689Z,1.90
2022-12-17T04:41:26.201Z,1.80
2022-12-17T04:44:13.295Z,1.95
2022-12-17T04:46:58.739Z,2.00
2022-12-17T04:49:44.257Z,2.10
2022-12-17T04:52:29.935Z,1.98
2022-12-17T04:55:15.407Z,2.20
2022-12-17T04:58:01.033Z,2.17
2022-12-17T05:00:48.264Z,2.20
2022-12-17T05:03:35.859Z,1.75
2022-12-17T05:06:22.385Z,2.20
2022-12-17T05:09:08.168Z,1.88
2022-12-17T05:11:53.776Z,1.90
2022-12-17T05:14:39.231Z,2.00
2022-12-17T05:17:26.410Z,2.40
2022-12-17T05:20:11.942Z,2.03
2022-12-17T05:22:57.538Z,2.20
2022-12-17T05:25:43.125Z,2.35
2022-12-17T05:28:28.572Z,1.88
2022-12-17T05:31:14.780Z,2.10
2022-12-17T05:34:01.807Z,1.65
2022-12-17T05:36:47.318Z,1.95
2022-12-17T05:39:32.793Z,2.10
2022-12-17T05:42:18.255Z,1.88
2022-12-17T05:45:03.915Z,1.98
2022-12-17T05:47:49.382Z,1.88
2022-12-17T05:50:36.169Z,1.92
2022-12-17T05:53:22.457Z,2.05
2022-12-17T05:56:08.837Z,1.90
2022-12-17T05:58:54.806Z,1.85
2022-12-17T06:01:40.581Z,2.22
2022-12-17T06:04:27.388Z,1.95
2022-12-17T06:07:14.643Z,2.28
2022-12-17T06:10:00.165Z,1.90
2022-12-17T06:12:45.701Z,2.20
2022-12-17T06:15:31.230Z,2.42
2022-12-17T06:18:17.560Z,1.95
2022-12-17T06:21:04.023Z,1.80
2022-12-17T06:23:51.294Z,2.08
2022-12-17T06:26:37.886Z,1.90
2022-12-17T06:29:23.459Z,2.13
2022-12-17T06:32:08.958Z,2.03
2022-12-17T06:34:53.992Z,1.80
2022-12-17T06:37:39.904Z,2.33
2022-12-17T06:40:28.542Z,2.05
2022-12-17T06:43:20.319Z,2.20
2022-12-17T06:46:06.111Z,2.33
2022-12-17T06:48:51.760Z,1.90
2022-12-17T06:51:37.292Z,2.08
2022-12-17T06:54:22.848Z,3.17
2022-12-17T06:57:24.616Z,3.65
2022-12-17T07:00:10.028Z,4.43
2022-12-17T07:02:56.276Z,4.95
2022-12-17T07:05:42.300Z,4.38
2022-12-17T07:08:28.363Z,4.43
2022-12-17T07:11:14.003Z,3.90
2022-12-17T07:14:01.118Z,3.72
2022-12-17T07:16:46.909Z,3.50
2022-12-17T07:19:32.488Z,3.53
2022-12-17T07:22:18.062Z,3.45
2022-12-17T07:25:03.754Z,3.13
2022-12-17T07:27:49.589Z,3.00
2022-12-17T07:30:36.673Z,2.70
2022-12-17T07:33:25.250Z,2.85
2022-12-17T07:36:11.695Z,3.08
2022-12-17T07:38:57.485Z,2.55
2022-12-17T07:41:43.421Z,2.50
2022-12-17T07:44:28.858Z,2.40
2022-12-17T07:47:16.011Z,2.53
2022-12-17T07:50:01.533Z,2.60
2022-12-17T07:52:47.204Z,2.60
2022-12-17T07:55:33.261Z,2.70
2022-12-17T07:58:20.217Z,2.53
2022-12-17T08:01:06.159Z,2.30
2022-12-17T08:03:53.456Z,2.25
2022-12-17T08:06:39.226Z,2.25
2022-12-17T08:09:24.738Z,2.15
2022-12-17T08:12:10.453Z,2.58
2022-12-17T08:14:55.871Z,2.13
2022-12-17T08:17:41.431Z,2.40
2022-12-17T08:20:29.560Z,2.75
2022-12-17T08:23:20.165Z,2.45
2022-12-17T08:26:05.666Z,2.60
2022-12-17T08:28:51.654Z,2.25
2022-12-17T08:31:38.268Z,2.75
2022-12-17T08:34:24.473Z,2.85
2022-12-17T08:37:12.136Z,2.33
2022-12-17T08:39:57.734Z,2.50
2022-12-17T08:42:43.188Z,2.38
2022-12-17T08:45:29.174Z,2.80
2022-12-17T08:48:21.793Z,2.90
2022-12-17T08:51:07.850Z,2.78
2022-12-17T08:53:55.240Z,2.42
2022-12-17T08:56:41.168Z,2.35
2022-12-17T08:59:26.727Z,2.40
2022-12-17T09:02:12.554Z,2.53
2022-12-17T09:04:58.179Z,2.40
2022-12-17T09:07:43.497Z,2.40
2022-12-17T09:10:31.054Z,2.65
2022-12-17T09:13:20.638Z,2.35
2022-12-17T09:16:13.351Z,2.65
2022-12-17T09:18:59.388Z,2.38
2022-12-17T09:21:45.840Z,2.85
2022-12-17T09:24:31.759Z,2.67
2022-12-17T09:27:18.946Z,2.70
2022-12-17T09:30:04.564Z,3.13
2022-12-17T09:32:50.469Z,2.70
2022-12-17T09:35:36.735Z,2.90
2022-12-17T09:38:22.389Z,2.65
2022-12-17T09:41:09.422Z,2.70
2022-12-17T09:44:04.007Z,2.38
2022-12-17T09:46:57.765Z,2.50
2022-12-17T09:49:45.676Z,2.50
2022-12-17T09:52:40.804Z,3.00
2022-12-17T09:55:39.366Z,2.50
2022-12-17T09:58:32.594Z,2.60
2022-12-17T10:01:20.007Z,2.90
2022-12-17T10:04:12.238Z,2.80
2022-12-17T10:06:58.231Z,2.50
2022-12-17T10:09:47.459Z,2.47
2022-12-17T10:12:35.715Z,2.53
2022-12-17T10:15:21.983Z,2.53
2022-12-17T10:18:08.815Z,2.40
2022-12-17T10:20:57.735Z,2.58
2022-12-17T10:23:45.235Z,2.45
2022-12-17T10:26:36.315Z,2.40
2022-12-17T10:29:24.855Z,2.60
2022-12-17T10:32:10.771Z,2.60
2022-12-17T10:35:04.792Z,2.50
2022-12-17T10:37:52.961Z,2.50
2022-12-17T10:40:44.238Z,3.03
2022-12-17T10:43:48.340Z,2.63
2022-12-17T10:46:44.581Z,2.45
2022-12-17T10:49:32.633Z,2.47
2022-12-17T10:52:22.721Z,2.92
2022-12-17T10:55:20.171Z,2.67
2022-12-17T10:58:10.008Z,2.70
2022-12-17T11:00:58.191Z,2.17
2022-12-17T11:03:50.841Z,2.50
2022-12-17T11:06:42.828Z,2.75
2022-12-17T11:09:50.863Z,2.75
2022-12-17T11:12:39.054Z,2.67
2022-12-17T11:15:36.306Z,2.80
2022-12-17T11:18:24.749Z,2.33
2022-12-17T11:21:20.731Z,2.60
2022-12-17T11:24:22.400Z,2.83
2022-12-17T11:27:14.113Z,2.83
2022-12-17T11:29:56.271Z,2.88
2022-12-17T11:33:12.095Z,2.50
2022-12-17T11:36:08.424Z,2.35
2022-12-17T11:38:57.831Z,2.63
2022-12-17T11:41:55.811Z,2.10
2022-12-17T11:44:55.149Z,2.22
2022-12-17T11:47:54.912Z,2.28
2022-12-17T11:50:47.080Z,2.60
2022-12-17T11:53:59.649Z,2.75
2022-12-17T11:56:49.239Z,2.65
2022-12-17T11:59:52.925Z,2.80
2022-12-17T12:03:10.105Z,2.75
2022-12-17T12:06:03.697Z,2.30
2022-12-17T12:08:52.841Z,2.47
2022-12-17T12:11:46.059Z,2.70
2022-12-17T12:14:45.394Z,2.53
2022-12-17T12:17:48.636Z,3.00
2022-12-17T12:20:51.117Z,2.80
2022-12-17T12:23:45.344Z,2.85
2022-12-17T12:26:35.451Z,2.13
2022-12-17T12:29:29.320Z,2.90
2022-12-17T12:32:26.218Z,2.83
2022-12-17T12:35:16.234Z,2.83
2022-12-17T12:38:02.362Z,2.85
2022-12-17T12:40:57.514Z,2.90
2022-12-17T12:43:48.111Z,2.65
2022-12-17T12:46:49.132Z,2.42
2022-12-17T12:49:41.264Z,2.90
2022-12-17T12:52:35.791Z,2.90
2022-12-17T12:55:21.672Z,3.00
2022-12-17T12:58:16.663Z,2.83
2022-12-17T13:01:12.488Z,2.78
2022-12-17T13:04:07.929Z,2.50
2022-12-17T13:06:43.336Z,3.00
2022-12-17T13:09:48.141Z,2.83
2022-12-17T13:12:29.302Z,3.00
2022-12-17T13:15:11.682Z,2.65
2022-12-17T13:17:45.235Z,2.90
2022-12-17T13:20:26.718Z,3.00
2022-12-17T13:23:07.375Z,3.33
2022-12-17T13:25:37.852Z,3.22
2022-12-17T13:28:07.152Z,2.95
2022-12-17T13:30:37.819Z,2.75
2022-12-17T13:33:23.819Z,2.70
2022-12-17T13:36:04.741Z,3.15
2022-12-17T13:38:45.336Z,2.92
2022-12-17T13:41:17.717Z,3.50
2022-12-17T13:43:49.953Z,3.38
2022-12-17T13:46:23.720Z,3.30
2022-12-17T13:48:57.594Z,3.55
2022-12-17T13:51:27.974Z,3.60
2022-12-17T13:53:58.011Z,3.40
2022-12-17T13:56:30.163Z,3.53
2022-12-17T13:59:08.186Z,3.63
2022-12-17T14:01:47.916Z,3.38
2022-12-17T14:04:24.450Z,3.28
2022-12-17T14:06:53.803Z,3.80
2022-12-17T14:09:24.847Z,3.65
2022-12-17T14:12:12.319Z,3.20
2022-12-17T14:14:43.576Z,3.30
2022-12-17T14:17:20.164Z,3.58
2022-12-17T14:19:51.077Z,3.60
2022-12-17T14:22:26.335Z,3.78
2022-12-17T14:24:54.737Z,3.75
2022-12-17T14:27:31.744Z,3.53
2022-12-17T14:30:00.843Z,3.45
2022-12-17T14:32:34.089Z,3.80
2022-12-17T14:35:02.709Z,3.60
2022-12-17T14:37:31.728Z,4.18
2022-12-17T14:40:03.874Z,3.95
2022-12-17T14:42:37.627Z,3.50
2022-12-17T14:45:09.127Z,4.00
2022-12-17T14:47:38.772Z,3.75
2022-12-17T14:50:25.094Z,3.83
2022-12-17T14:52:54.780Z,3.70
2022-12-17T14:55:28.925Z,3.90
2022-12-17T14:58:20.155Z,3.45
2022-12-17T15:00:52.042Z,3.83
2022-12-17T15:03:23.906Z,4.35
2022-12-17T15:05:55.936Z,4.35
2022-12-17T15:08:24.589Z,4.38
2022-12-17T15:10:52.942Z,3.90
2022-12-17T15:13:23.106Z,4.10
2022-12-17T15:15:51.502Z,4.35
2022-12-17T15:18:21.714Z,4.20
2022-12-17T15:20:49.955Z,4.22
2022-12-17T15:23:20.112Z,3.97
2022-12-17T15:25:50.504Z,4.05
2022-12-17T15:28:20.348Z,4.10
2022-12-17T15:30:50.746Z,4.20
2022-12-17T15:33:19.700Z,3.80
2022-12-17T15:35:48.089Z,3.83
2022-12-17T15:38:16.273Z,3.97
2022-12-17T15:40:44.502Z,4.10
2022-12-17T15:43:12.655Z,3.75
2022-12-17T15:45:42.502Z,4.13
2022-12-17T15:48:13.484Z,4.28
2022-12-17T15:50:42.000Z,3.92
2022-12-17T15:53:10.708Z,4.07
2022-12-17T15:55:39.487Z,4.32
2022-12-17T15:58:09.098Z,4.32
2022-12-17T16:00:37.589Z,3.65
2022-12-17T16:03:05.829Z,4.15
2022-12-17T16:05:35.517Z,3.95
2022-12-17T16:08:03.787Z,4.25
2022-12-17T16:10:32.039Z,4.18
2022-12-17T16:13:00.266Z,4.10
2022-12-17T16:15:28.601Z,4.30
2022-12-17T16:17:56.933Z,3.90
2022-12-17T16:20:25.950Z,4.10
2022-12-17T16:22:58.640Z,3.80
2022-12-17T16:25:27.006Z,4.00
2022-12-17T16:27:55.283Z,4.07
2022-12-17T16:30:23.529Z,4.45
2022-12-17T16:32:51.787Z,4.35
2022-12-17T16:35:19.937Z,4.28
2022-12-17T16:37:48.143Z,4.43
2022-12-17T16:40:18.011Z,4.15
2022-12-17T16:42:46.405Z,4.57
2022-12-17T16:45:14.621Z,4.25
2022-12-17T16:47:42.895Z,4.72
2022-12-17T16:50:11.305Z,4.50
2022-12-17T16:52:39.649Z,4.43
2022-12-17T16:55:08.219Z,4.32
2022-12-17T16:57:37.865Z,4.20
2022-12-17T17:00:07.086Z,4.70
2022-12-17T17:02:35.467Z,3.85
2022-12-17T17:05:03.901Z,4.68
2022-12-17T17:07:32.189Z,4.45
2022-12-17T17:10:00.402Z,4.70
2022-12-17T17:12:29.122Z,4.43
2022-12-17T17:14:58.793Z,4.10
2022-12-17T17:17:55.770Z,4.43
2022-12-17T17:20:15.324Z,4.80
2022-12-17T17:22:44.817Z,4.32
2022-12-17T17:25:13.069Z,4.60
2022-12-17T17:27:41.336Z,4.82
2022-12-17T17:30:12.526Z,5.07
2022-12-17T17:32:40.816Z,4.88
2022-12-17T17:35:09.654Z,4.85
2022-12-17T17:37:37.861Z,4.80
2022-12-17T17:40:07.173Z,5.05
2022-12-17T17:42:35.388Z,4.78
2022-12-17T17:45:04.362Z,4.75
2022-12-17T17:47:34.015Z,4.50
2022-12-17T17:50:02.313Z,5.03
2022-12-17T17:52:30.597Z,4.95
2022-12-17T17:54:58.839Z,4.40
2022-12-17T17:57:27.125Z,4.95
2022-12-17T17:59:55.372Z,4.82
2022-12-17T18:02:23.815Z,4.43
2022-12-17T18:04:53.756Z,4.65
2022-12-17T18:07:26.369Z,4.68
2022-12-17T18:09:55.103Z,4.72
2022-12-17T18:12:41.566Z,4.90
2022-12-17T18:15:15.948Z,4.95
2022-12-17T18:17:46.423Z,4.70
2022-12-17T18:20:16.337Z,4.70
2022-12-17T18:22:46.429Z,4.25
2022-12-17T18:25:15.692Z,4.90
2022-12-17T18:27:44.698Z,4.32
2022-12-17T18:30:13.834Z,4.45
2022-12-17T18:32:42.685Z,4.57
2022-12-17T18:35:11.235Z,4.63
2022-12-17T18:37:40.782Z,4.93
2022-12-17T18:40:10.266Z,4.90
2022-12-17T18:42:55.773Z,4.90
2022-12-17T18:45:24.018Z,4.60
2022-12-17T18:47:52.478Z,5.03
2022-12-17T18:50:20.778Z,4.82
2022-12-17T18:52:50.496Z,4.82
2022-12-17T18:55:18.948Z,4.50
2022-12-17T18:57:47.255Z,4.68
2022-12-17T19:00:16.209Z,4.18
2022-12-17T19:02:45.297Z,4.72
2022-12-17T19:05:13.815Z,4.80
2022-12-17T19:07:42.069Z,5.10
2022-12-17T19:10:12.759Z,4.43
2022-12-17T19:12:41.044Z,4.53
2022-12-17T19:15:10.295Z,4.72
2022-12-17T19:17:38.811Z,4.50
2022-12-17T19:20:08.147Z,4.47
2022-12-17T19:22:39.070Z,4.75
2022-12-17T19:25:07.976Z,4.95
2022-12-17T19:27:37.773Z,4.93
2022-12-17T19:30:07.575Z,4.95
2022-12-17T19:32:36.050Z,4.80
2022-12-17T19:35:05.008Z,4.90
2022-12-17T19:37:33.306Z,4.57
2022-12-17T19:40:01.785Z,4.95
2022-12-17T19:42:36.707Z,5.13
2022-12-17T19:45:08.269Z,4.88
2022-12-17T19:47:36.731Z,4.53
2022-12-17T19:50:05.626Z,4.63
2022-12-17T19:52:33.854Z,5.13
2022-12-17T19:55:02.498Z,4.30
2022-12-17T19:57:31.718Z,4.93
2022-12-17T19:59:59.909Z,4.82
2022-12-17T20:02:32.743Z,4.80
2022-12-17T20:05:01.894Z,4.88
2022-12-17T20:07:30.343Z,4.78
2022-12-17T20:09:58.713Z,4.93
2022-12-17T20:12:27.250Z,4.72
2022-12-17T20:14:58.760Z,4.80
2022-12-17T20:17:27.344Z,4.53
2022-12-17T20:19:58.021Z,4.45
2022-12-17T20:22:26.679Z,4.63
2022-12-17T20:24:55.128Z,5.07
2022-12-17T20:27:23.675Z,4.40
2022-12-17T20:29:54.176Z,4.20
2022-12-17T20:32:22.517Z,4.88
2022-12-17T20:34:51.567Z,4.72
2022-12-17T20:37:21.169Z,5.03
2022-12-17T20:39:49.532Z,4.70
2022-12-17T20:42:18.751Z,4.70
2022-12-17T20:44:53.080Z,4.70
2022-12-17T20:47:21.886Z,4.60
2022-12-17T20:49:50.217Z,4.82
2022-12-17T20:52:19.942Z,4.72
2022-12-17T20:54:49.327Z,4.30
2022-12-17T20:57:17.779Z,5.00
2022-12-17T20:59:46.331Z,4.78
2022-12-17T21:02:15.019Z,4.85
2022-12-17T21:04:43.884Z,4.90
2022-12-17T21:07:12.280Z,4.35
2022-12-17T21:09:42.002Z,5.35
2022-12-17T21:12:12.431Z,4.47
2022-12-17T21:14:40.865Z,4.88
2022-12-17T21:17:09.279Z,4.95
2022-12-17T21:19:37.774Z,5.03
2022-12-17T21:22:06.899Z,5.03
2022-12-17T21:24:37.698Z,4.90
2022-12-17T21:27:14.354Z,4.57
2022-12-17T21:29:43.243Z,5.13
2022-12-17T21:32:12.115Z,4.75
2022-12-17T21:34:41.036Z,4.93
2022-12-17T21:37:11.272Z,5.30
2022-12-17T21:39:40.011Z,4.75
2022-12-17T21:42:27.860Z,5.28
2022-12-17T21:44:56.460Z,4.93
2022-12-17T21:47:25.137Z,4.70
2022-12-17T21:49:55.309Z,4.88
2022-12-17T21:52:23.789Z,4.97
2022-12-17T21:54:52.357Z,5.13
2022-12-17T21:57:22.078Z,4.75
2022-12-17T21:59:50.320Z,5.28
2022-12-17T22:02:19.967Z,5.13
2022-12-17T22:04:48.580Z,4.70
2022-12-17T22:07:21.416Z,4.57
2022-12-17T22:10:23.814Z,4.70
2022-12-17T22:12:59.949Z,5.18
2022-12-17T22:15:39.666Z,5.13
2022-12-17T22:18:16.577Z,4.70
2022-12-17T22:20:44.943Z,5.15
2022-12-17T22:23:13.378Z,4.85
2022-12-17T22:25:42.551Z,5.00
2022-12-17T22:28:12.267Z,4.80
2022-12-17T22:30:58.256Z,5.32
2022-12-17T22:33:56.828Z,5.15
2022-12-17T22:38:36.179Z,5.38
2022-12-17T22:42:14.906Z,5.00
2022-12-17T22:44:37.448Z,5.07
2022-12-17T22:45:10.913Z,5.22
2022-12-17T22:47:40.214Z,4.88
2022-12-17T22:50:09.100Z,5.38
2022-12-17T22:52:38.018Z,4.70
2022-12-17T22:55:07.650Z,5.47
2022-12-17T22:57:38.477Z,4.93
2022-12-17T23:00:15.167Z,5.28
2022-12-17T23:02:43.439Z,5.00
2022-12-17T23:05:11.683Z,5.35
2022-12-17T23:07:40.075Z,5.05
2022-12-17T23:10:08.996Z,5.47
2022-12-17T23:12:52.434Z,5.47
2022-12-17T23:15:27.770Z,5.13
2022-12-17T23:17:58.100Z,5.38
2022-12-17T23:20:27.439Z,4.63
2022-12-17T23:22:56.136Z,5.30
2022-12-17T23:25:25.768Z,5.10
2022-12-17T23:27:56.989Z,5.32
2022-12-17T23:30:27.026Z,5.45
2022-12-17T23:32:56.061Z,5.05
2022-12-17T23:35:24.517Z,5.32
2022-12-17T23:37:53.183Z,5.03
2022-12-17T23:40:22.104Z,4.93
2022-12-17T23:42:50.943Z,4.93
2022-12-17T23:45:19.326Z,5.20
2022-12-17T23:47:49.210Z,5.13
2022-12-17T23:50:18.446Z,4.65
2022-12-17T23:52:46.641Z,4.70
2022-12-17T23:55:15.238Z,4.95
2022-12-17T23:57:43.405Z,5.13
